sensor_id;sensor_type;location;lat;lon;timestamp;temperature;humidity
43671;DHT22;29267;50.906;7.248;2023-09-18T00:00:33;20.20;99.90
43671;DHT22;29267;50.906;7.248;2023-09-18T00:03:00;20.30;99.90
43671;DHT22;29267;50.906;7.248;2023-09-18T00:05:28;20.30;99.90
43671;DHT22;29267;50.906;7.248;2023-09-18T00:07:54;20.30;99.90
43671;DHT22;29267;50.906;7.248;2023-09-18T00:10:19;20.20;99.90
43671;DHT22;29267;50.906;7.248;2023-09-18T00:12:45;20.30;99.90
43671;DHT22;29267;50.906;7.248;2023-09-18T00:15:10;20.20;99.90
43671;DHT22;29267;50.906;7.248;2023-09-18T00:17:36;20.20;99.90
43671;DHT22;29267;50.906;7.248;2023-09-18T00:20:02;20.30;99.90
43671;DHT22;29267;50.906;7.248;2023-09-18T00:22:31;20.30;99.90
43671;DHT22;29267;50.906;7.248;2023-09-18T00:24:57;20.30;99.90
43671;DHT22;29267;50.906;7.248;2023-09-18T00:27:23;20.20;99.90
43671;DHT22;29267;50.906;7.248;2023-09-18T00:29:48;20.40;99.90
43671;DHT22;29267;50.906;7.248;2023-09-18T00:32:14;20.40;99.90
43671;DHT22;29267;50.906;7.248;2023-09-18T00:34:39;20.40;99.90
43671;DHT22;29267;50.906;7.248;2023-09-18T00:37:05;20.40;99.90
43671;DHT22;29267;50.906;7.248;2023-09-18T00:39:31;20.40;99.90
43671;DHT22;29267;50.906;7.248;2023-09-18T00:41:56;20.40;99.90
43671;DHT22;29267;50.906;7.248;2023-09-18T00:44:23;20.40;99.90
43671;DHT22;29267;50.906;7.248;2023-09-18T00:46:50;20.40;99.90
43671;DHT22;29267;50.906;7.248;2023-09-18T00:49:18;20.50;99.90
43671;DHT22;29267;50.906;7.248;2023-09-18T00:51:45;20.40;99.90
43671;DHT22;29267;50.906;7.248;2023-09-18T00:54:15;20.40;99.90
43671;DHT22;29267;50.906;7.248;2023-09-18T00:56:42;20.40;99.90
43671;DHT22;29267;50.906;7.248;2023-09-18T00:59:08;20.40;99.90
43671;DHT22;29267;50.906;7.248;2023-09-18T01:01:35;20.40;99.90
43671;DHT22;29267;50.906;7.248;2023-09-18T01:04:00;20.40;99.90
43671;DHT22;29267;50.906;7.248;2023-09-18T01:06:27;20.30;99.90
43671;DHT22;29267;50.906;7.248;2023-09-18T01:08:56;20.30;99.90
43671;DHT22;29267;50.906;7.248;2023-09-18T01:14:18;20.20;99.90
43671;DHT22;29267;50.906;7.248;2023-09-18T01:17:07;20.20;99.90
43671;DHT22;29267;50.906;7.248;2023-09-18T01:19:44;20.20;99.90
43671;DHT22;29267;50.906;7.248;2023-09-18T01:22:15;20.10;99.90
43671;DHT22;29267;50.906;7.248;2023-09-18T01:24:42;20.10;99.90
43671;DHT22;29267;50.906;7.248;2023-09-18T01:27:13;20.10;99.90
43671;DHT22;29267;50.906;7.248;2023-09-18T01:29:39;20.10;99.90
43671;DHT22;29267;50.906;7.248;2023-09-18T01:32:05;20.00;99.90
43671;DHT22;29267;50.906;7.248;2023-09-18T01:34:41;19.90;99.90
43671;DHT22;29267;50.906;7.248;2023-09-18T01:37:11;19.90;99.90
43671;DHT22;29267;50.906;7.248;2023-09-18T01:39:38;19.90;99.90
43671;DHT22;29267;50.906;7.248;2023-09-18T01:42:06;19.90;99.90
43671;DHT22;29267;50.906;7.248;2023-09-18T01:44:35;19.80;99.90
43671;DHT22;29267;50.906;7.248;2023-09-18T01:47:11;19.80;99.90
43671;DHT22;29267;50.906;7.248;2023-09-18T01:49:38;19.80;99.90
43671;DHT22;29267;50.906;7.248;2023-09-18T01:52:06;19.80;99.90
43671;DHT22;29267;50.906;7.248;2023-09-18T01:54:33;19.80;99.90
43671;DHT22;29267;50.906;7.248;2023-09-18T01:56:59;19.80;99.90
43671;DHT22;29267;50.906;7.248;2023-09-18T01:59:25;19.90;99.90
43671;DHT22;29267;50.906;7.248;2023-09-18T02:01:52;20.00;99.90
43671;DHT22;29267;50.906;7.248;2023-09-18T02:04:19;20.10;99.90
43671;DHT22;29267;50.906;7.248;2023-09-18T02:06:46;20.10;99.90
43671;DHT22;29267;50.906;7.248;2023-09-18T02:09:12;20.20;99.90
43671;DHT22;29267;50.906;7.248;2023-09-18T02:11:39;20.20;99.90
43671;DHT22;29267;50.906;7.248;2023-09-18T02:14:07;20.20;99.90
43671;DHT22;29267;50.906;7.248;2023-09-18T02:16:35;20.20;99.90
43671;DHT22;29267;50.906;7.248;2023-09-18T02:19:04;20.30;99.90
43671;DHT22;29267;50.906;7.248;2023-09-18T02:21:31;20.30;99.90
43671;DHT22;29267;50.906;7.248;2023-09-18T02:23:56;20.30;99.90
43671;DHT22;29267;50.906;7.248;2023-09-18T02:26:23;20.30;99.90
43671;DHT22;29267;50.906;7.248;2023-09-18T02:28:51;20.30;99.90
43671;DHT22;29267;50.906;7.248;2023-09-18T02:31:16;20.30;99.90
43671;DHT22;29267;50.906;7.248;2023-09-18T02:33:43;20.30;99.90
43671;DHT22;29267;50.906;7.248;2023-09-18T02:36:08;20.20;99.90
43671;DHT22;29267;50.906;7.248;2023-09-18T02:38:34;20.20;99.90
43671;DHT22;29267;50.906;7.248;2023-09-18T02:41:00;20.10;99.90
43671;DHT22;29267;50.906;7.248;2023-09-18T02:43:26;20.10;99.90
43671;DHT22;29267;50.906;7.248;2023-09-18T02:45:52;20.00;99.90
43671;DHT22;29267;50.906;7.248;2023-09-18T02:48:18;20.00;99.90
43671;DHT22;29267;50.906;7.248;2023-09-18T02:50:44;19.90;99.90
43671;DHT22;29267;50.906;7.248;2023-09-18T02:53:21;19.90;99.90
43671;DHT22;29267;50.906;7.248;2023-09-18T02:55:49;19.90;99.90
43671;DHT22;29267;50.906;7.248;2023-09-18T02:58:15;19.80;99.90
43671;DHT22;29267;50.906;7.248;2023-09-18T03:00:46;19.80;99.90
43671;DHT22;29267;50.906;7.248;2023-09-18T03:03:12;19.70;99.90
43671;DHT22;29267;50.906;7.248;2023-09-18T03:05:39;19.60;99.90
43671;DHT22;29267;50.906;7.248;2023-09-18T03:08:05;19.50;99.90
43671;DHT22;29267;50.906;7.248;2023-09-18T03:10:40;19.50;99.90
43671;DHT22;29267;50.906;7.248;2023-09-18T03:13:08;19.40;99.90
43671;DHT22;29267;50.906;7.248;2023-09-18T03:15:34;19.40;99.90
43671;DHT22;29267;50.906;7.248;2023-09-18T03:18:02;19.40;99.90
43671;DHT22;29267;50.906;7.248;2023-09-18T03:20:29;19.40;99.90
43671;DHT22;29267;50.906;7.248;2023-09-18T03:22:59;19.30;99.90
43671;DHT22;29267;50.906;7.248;2023-09-18T03:25:25;19.30;99.90
43671;DHT22;29267;50.906;7.248;2023-09-18T03:27:52;19.30;99.90
43671;DHT22;29267;50.906;7.248;2023-09-18T03:30:22;19.40;99.90
43671;DHT22;29267;50.906;7.248;2023-09-18T03:32:49;19.40;99.90
43671;DHT22;29267;50.906;7.248;2023-09-18T03:35:16;19.40;99.90
43671;DHT22;29267;50.906;7.248;2023-09-18T03:37:52;19.40;99.90
43671;DHT22;29267;50.906;7.248;2023-09-18T03:40:20;19.40;99.90
43671;DHT22;29267;50.906;7.248;2023-09-18T03:42:46;19.40;99.90
43671;DHT22;29267;50.906;7.248;2023-09-18T03:45:12;19.30;99.90
43671;DHT22;29267;50.906;7.248;2023-09-18T03:47:39;19.30;99.90
43671;DHT22;29267;50.906;7.248;2023-09-18T03:50:06;19.30;99.90
43671;DHT22;29267;50.906;7.248;2023-09-18T03:52:32;19.30;99.90
43671;DHT22;29267;50.906;7.248;2023-09-18T03:54:57;19.30;99.90
43671;DHT22;29267;50.906;7.248;2023-09-18T03:57:23;19.30;99.90
43671;DHT22;29267;50.906;7.248;2023-09-18T03:59:49;19.30;99.90
43671;DHT22;29267;50.906;7.248;2023-09-18T04:02:14;19.20;99.90
43671;DHT22;29267;50.906;7.248;2023-09-18T04:04:40;19.20;99.90
43671;DHT22;29267;50.906;7.248;2023-09-18T04:07:06;19.20;99.90
43671;DHT22;29267;50.906;7.248;2023-09-18T04:09:32;19.20;99.90
43671;DHT22;29267;50.906;7.248;2023-09-18T04:11:58;19.20;99.90
43671;DHT22;29267;50.906;7.248;2023-09-18T04:14:23;19.20;99.90
43671;DHT22;29267;50.906;7.248;2023-09-18T04:16:50;19.10;99.90
43671;DHT22;29267;50.906;7.248;2023-09-18T04:19:15;19.10;99.90
43671;DHT22;29267;50.906;7.248;2023-09-18T04:21:41;19.10;99.90
43671;DHT22;29267;50.906;7.248;2023-09-18T04:24:06;19.00;99.90
43671;DHT22;29267;50.906;7.248;2023-09-18T04:26:32;18.90;99.90
43671;DHT22;29267;50.906;7.248;2023-09-18T04:29:02;18.80;99.90
43671;DHT22;29267;50.906;7.248;2023-09-18T04:31:28;18.70;99.90
43671;DHT22;29267;50.906;7.248;2023-09-18T04:33:55;18.60;99.90
43671;DHT22;29267;50.906;7.248;2023-09-18T04:36:20;18.60;99.90
43671;DHT22;29267;50.906;7.248;2023-09-18T04:38:46;18.50;99.90
43671;DHT22;29267;50.906;7.248;2023-09-18T04:41:11;18.50;99.90
43671;DHT22;29267;50.906;7.248;2023-09-18T04:43:37;18.50;99.90
43671;DHT22;29267;50.906;7.248;2023-09-18T04:46:06;18.50;99.90
43671;DHT22;29267;50.906;7.248;2023-09-18T04:48:32;18.40;99.90
43671;DHT22;29267;50.906;7.248;2023-09-18T04:50:58;18.40;99.90
43671;DHT22;29267;50.906;7.248;2023-09-18T04:53:24;18.40;99.90
43671;DHT22;29267;50.906;7.248;2023-09-18T04:55:50;18.40;99.90
43671;DHT22;29267;50.906;7.248;2023-09-18T04:58:16;18.30;99.90
43671;DHT22;29267;50.906;7.248;2023-09-18T05:00:42;18.30;99.90
43671;DHT22;29267;50.906;7.248;2023-09-18T05:03:10;18.30;99.90
43671;DHT22;29267;50.906;7.248;2023-09-18T05:05:36;18.30;99.90
43671;DHT22;29267;50.906;7.248;2023-09-18T05:08:02;18.40;99.90
43671;DHT22;29267;50.906;7.248;2023-09-18T05:10:28;18.30;99.90
43671;DHT22;29267;50.906;7.248;2023-09-18T05:12:55;18.40;99.90
43671;DHT22;29267;50.906;7.248;2023-09-18T05:15:24;18.40;99.90
43671;DHT22;29267;50.906;7.248;2023-09-18T05:17:52;18.40;99.90
43671;DHT22;29267;50.906;7.248;2023-09-18T05:20:21;18.40;99.90
43671;DHT22;29267;50.906;7.248;2023-09-18T05:22:50;18.40;99.90
43671;DHT22;29267;50.906;7.248;2023-09-18T05:25:18;18.50;99.90
43671;DHT22;29267;50.906;7.248;2023-09-18T05:27:44;18.50;99.90
43671;DHT22;29267;50.906;7.248;2023-09-18T05:30:12;18.50;99.90
43671;DHT22;29267;50.906;7.248;2023-09-18T05:32:38;18.60;99.90
43671;DHT22;29267;50.906;7.248;2023-09-18T05:35:04;18.60;99.90
43671;DHT22;29267;50.906;7.248;2023-09-18T05:37:32;18.60;99.90
43671;DHT22;29267;50.906;7.248;2023-09-18T05:39:58;18.60;99.90
43671;DHT22;29267;50.906;7.248;2023-09-18T05:42:23;18.60;99.90
43671;DHT22;29267;50.906;7.248;2023-09-18T05:44:49;18.60;99.90
43671;DHT22;29267;50.906;7.248;2023-09-18T05:47:15;18.60;99.90
43671;DHT22;29267;50.906;7.248;2023-09-18T05:49:40;18.60;99.90
43671;DHT22;29267;50.906;7.248;2023-09-18T05:52:06;18.70;99.90
43671;DHT22;29267;50.906;7.248;2023-09-18T05:54:31;18.70;99.90
43671;DHT22;29267;50.906;7.248;2023-09-18T05:56:57;18.80;99.90
43671;DHT22;29267;50.906;7.248;2023-09-18T05:59:22;18.80;99.90
43671;DHT22;29267;50.906;7.248;2023-09-18T06:01:48;18.80;99.90
43671;DHT22;29267;50.906;7.248;2023-09-18T06:04:14;18.90;99.90
43671;DHT22;29267;50.906;7.248;2023-09-18T06:06:42;18.90;99.90
43671;DHT22;29267;50.906;7.248;2023-09-18T06:09:08;18.90;99.90
43671;DHT22;29267;50.906;7.248;2023-09-18T06:11:33;19.00;99.90
43671;DHT22;29267;50.906;7.248;2023-09-18T06:13:59;19.00;99.90
43671;DHT22;29267;50.906;7.248;2023-09-18T06:16:25;19.00;99.90
43671;DHT22;29267;50.906;7.248;2023-09-18T06:18:50;19.00;99.90
43671;DHT22;29267;50.906;7.248;2023-09-18T06:21:16;19.00;99.90
43671;DHT22;29267;50.906;7.248;2023-09-18T06:23:41;19.00;99.90
43671;DHT22;29267;50.906;7.248;2023-09-18T06:26:07;19.10;99.90
43671;DHT22;29267;50.906;7.248;2023-09-18T06:28:32;19.10;99.90
43671;DHT22;29267;50.906;7.248;2023-09-18T06:30:58;19.20;99.90
43671;DHT22;29267;50.906;7.248;2023-09-18T06:33:23;19.20;99.90
43671;DHT22;29267;50.906;7.248;2023-09-18T06:35:49;19.20;99.90
43671;DHT22;29267;50.906;7.248;2023-09-18T06:38:17;19.30;99.90
43671;DHT22;29267;50.906;7.248;2023-09-18T06:40:42;19.30;99.90
43671;DHT22;29267;50.906;7.248;2023-09-18T06:43:08;19.30;99.90
43671;DHT22;29267;50.906;7.248;2023-09-18T06:45:33;19.30;99.90
43671;DHT22;29267;50.906;7.248;2023-09-18T06:47:59;19.40;99.90
43671;DHT22;29267;50.906;7.248;2023-09-18T06:50:28;19.50;99.90
43671;DHT22;29267;50.906;7.248;2023-09-18T06:52:54;19.50;99.90
43671;DHT22;29267;50.906;7.248;2023-09-18T06:55:19;19.50;99.90
43671;DHT22;29267;50.906;7.248;2023-09-18T06:57:45;19.50;99.90
43671;DHT22;29267;50.906;7.248;2023-09-18T07:00:13;19.70;99.90
43671;DHT22;29267;50.906;7.248;2023-09-18T07:02:40;19.70;99.90
43671;DHT22;29267;50.906;7.248;2023-09-18T07:05:06;19.80;99.90
43671;DHT22;29267;50.906;7.248;2023-09-18T07:07:31;19.90;99.90
43671;DHT22;29267;50.906;7.248;2023-09-18T07:09:57;20.00;99.90
43671;DHT22;29267;50.906;7.248;2023-09-18T07:12:23;20.10;99.90
43671;DHT22;29267;50.906;7.248;2023-09-18T07:14:48;20.20;99.90
43671;DHT22;29267;50.906;7.248;2023-09-18T07:17:14;20.30;99.90
43671;DHT22;29267;50.906;7.248;2023-09-18T07:19:40;20.30;99.90
43671;DHT22;29267;50.906;7.248;2023-09-18T07:22:06;20.30;99.90
43671;DHT22;29267;50.906;7.248;2023-09-18T07:24:32;20.40;99.90
43671;DHT22;29267;50.906;7.248;2023-09-18T07:26:57;20.40;99.90
43671;DHT22;29267;50.906;7.248;2023-09-18T07:29:23;20.40;99.90
43671;DHT22;29267;50.906;7.248;2023-09-18T07:31:50;20.40;99.90
43671;DHT22;29267;50.906;7.248;2023-09-18T07:34:16;20.50;99.90
43671;DHT22;29267;50.906;7.248;2023-09-18T07:36:43;20.60;99.90
43671;DHT22;29267;50.906;7.248;2023-09-18T07:39:09;20.60;99.90
43671;DHT22;29267;50.906;7.248;2023-09-18T07:41:37;20.70;99.90
43671;DHT22;29267;50.906;7.248;2023-09-18T07:44:03;20.70;99.90
43671;DHT22;29267;50.906;7.248;2023-09-18T07:46:28;20.70;99.90
43671;DHT22;29267;50.906;7.248;2023-09-18T07:48:54;20.80;99.90
43671;DHT22;29267;50.906;7.248;2023-09-18T07:51:20;20.80;99.90
43671;DHT22;29267;50.906;7.248;2023-09-18T07:53:46;20.90;99.90
43671;DHT22;29267;50.906;7.248;2023-09-18T07:56:12;20.90;99.90
43671;DHT22;29267;50.906;7.248;2023-09-18T07:58:37;20.90;99.90
43671;DHT22;29267;50.906;7.248;2023-09-18T08:01:07;21.00;99.90
43671;DHT22;29267;50.906;7.248;2023-09-18T08:03:34;21.20;99.90
43671;DHT22;29267;50.906;7.248;2023-09-18T08:06:00;21.40;99.90
43671;DHT22;29267;50.906;7.248;2023-09-18T08:08:26;21.40;99.90
43671;DHT22;29267;50.906;7.248;2023-09-18T08:10:52;21.30;99.90
43671;DHT22;29267;50.906;7.248;2023-09-18T08:13:18;21.30;99.90
43671;DHT22;29267;50.906;7.248;2023-09-18T08:15:48;21.20;99.90
43671;DHT22;29267;50.906;7.248;2023-09-18T08:18:14;21.00;99.90
43671;DHT22;29267;50.906;7.248;2023-09-18T08:20:43;20.90;99.90
43671;DHT22;29267;50.906;7.248;2023-09-18T08:23:10;20.90;99.90
43671;DHT22;29267;50.906;7.248;2023-09-18T08:25:36;20.80;99.90
43671;DHT22;29267;50.906;7.248;2023-09-18T08:28:02;20.80;99.90
43671;DHT22;29267;50.906;7.248;2023-09-18T08:30:28;20.90;99.90
43671;DHT22;29267;50.906;7.248;2023-09-18T08:32:54;20.90;99.90
43671;DHT22;29267;50.906;7.248;2023-09-18T08:35:20;21.00;99.90
43671;DHT22;29267;50.906;7.248;2023-09-18T08:37:46;21.20;99.90
43671;DHT22;29267;50.906;7.248;2023-09-18T08:40:12;21.20;99.90
43671;DHT22;29267;50.906;7.248;2023-09-18T08:42:41;21.30;99.90
43671;DHT22;29267;50.906;7.248;2023-09-18T08:45:10;21.30;99.90
43671;DHT22;29267;50.906;7.248;2023-09-18T08:47:40;21.40;99.90
43671;DHT22;29267;50.906;7.248;2023-09-18T08:50:08;21.50;99.90
43671;DHT22;29267;50.906;7.248;2023-09-18T08:52:35;21.70;99.90
43671;DHT22;29267;50.906;7.248;2023-09-18T08:55:02;21.70;99.90
43671;DHT22;29267;50.906;7.248;2023-09-18T08:57:29;21.80;99.90
43671;DHT22;29267;50.906;7.248;2023-09-18T08:59:56;21.80;99.90
43671;DHT22;29267;50.906;7.248;2023-09-18T09:02:23;22.00;99.90
43671;DHT22;29267;50.906;7.248;2023-09-18T09:04:49;22.00;99.90
43671;DHT22;29267;50.906;7.248;2023-09-18T09:07:15;22.30;99.90
43671;DHT22;29267;50.906;7.248;2023-09-18T09:09:40;22.40;99.90
43671;DHT22;29267;50.906;7.248;2023-09-18T09:12:07;22.40;99.90
43671;DHT22;29267;50.906;7.248;2023-09-18T09:14:33;22.60;99.90
43671;DHT22;29267;50.906;7.248;2023-09-18T09:16:59;22.90;99.90
43671;DHT22;29267;50.906;7.248;2023-09-18T09:19:32;23.00;99.90
43671;DHT22;29267;50.906;7.248;2023-09-18T09:22:01;23.00;99.90
43671;DHT22;29267;50.906;7.248;2023-09-18T09:24:37;23.10;99.90
43671;DHT22;29267;50.906;7.248;2023-09-18T09:27:03;23.10;99.90
43671;DHT22;29267;50.906;7.248;2023-09-18T09:29:29;23.10;99.90
43671;DHT22;29267;50.906;7.248;2023-09-18T09:31:55;23.10;99.90
43671;DHT22;29267;50.906;7.248;2023-09-18T09:34:26;23.10;99.90
43671;DHT22;29267;50.906;7.248;2023-09-18T09:36:55;22.90;99.90
43671;DHT22;29267;50.906;7.248;2023-09-18T09:39:22;22.70;99.90
43671;DHT22;29267;50.906;7.248;2023-09-18T09:41:51;22.70;99.90
43671;DHT22;29267;50.906;7.248;2023-09-18T09:44:17;22.60;99.90
43671;DHT22;29267;50.906;7.248;2023-09-18T09:46:50;22.60;99.90
43671;DHT22;29267;50.906;7.248;2023-09-18T09:49:17;22.70;99.90
43671;DHT22;29267;50.906;7.248;2023-09-18T09:51:45;22.50;99.90
43671;DHT22;29267;50.906;7.248;2023-09-18T09:54:11;22.40;99.90
43671;DHT22;29267;50.906;7.248;2023-09-18T09:56:49;22.50;99.90
43671;DHT22;29267;50.906;7.248;2023-09-18T09:59:17;22.50;99.90
43671;DHT22;29267;50.906;7.248;2023-09-18T10:01:47;22.50;99.90
43671;DHT22;29267;50.906;7.248;2023-09-18T10:04:15;22.50;99.90
43671;DHT22;29267;50.906;7.248;2023-09-18T10:06:55;22.60;99.90
43671;DHT22;29267;50.906;7.248;2023-09-18T10:09:26;22.80;99.90
43671;DHT22;29267;50.906;7.248;2023-09-18T10:11:56;23.00;99.90
43671;DHT22;29267;50.906;7.248;2023-09-18T10:14:33;23.10;99.90
43671;DHT22;29267;50.906;7.248;2023-09-18T10:17:12;23.50;99.90
43671;DHT22;29267;50.906;7.248;2023-09-18T10:22:54;23.70;99.90
43671;DHT22;29267;50.906;7.248;2023-09-18T10:25:23;24.20;99.90
43671;DHT22;29267;50.906;7.248;2023-09-18T10:27:51;24.20;99.90
43671;DHT22;29267;50.906;7.248;2023-09-18T10:30:24;24.50;99.90
43671;DHT22;29267;50.906;7.248;2023-09-18T10:32:51;24.60;99.90
43671;DHT22;29267;50.906;7.248;2023-09-18T10:35:17;25.00;99.90
43671;DHT22;29267;50.906;7.248;2023-09-18T10:37:46;25.10;99.90
43671;DHT22;29267;50.906;7.248;2023-09-18T10:40:12;25.20;99.90
43671;DHT22;29267;50.906;7.248;2023-09-18T10:42:39;25.00;99.90
43671;DHT22;29267;50.906;7.248;2023-09-18T10:45:07;24.60;99.90
43671;DHT22;29267;50.906;7.248;2023-09-18T10:47:40;24.60;99.90
43671;DHT22;29267;50.906;7.248;2023-09-18T10:50:08;24.50;99.90
43671;DHT22;29267;50.906;7.248;2023-09-18T10:52:35;24.40;99.90
43671;DHT22;29267;50.906;7.248;2023-09-18T10:55:01;24.60;99.90
43671;DHT22;29267;50.906;7.248;2023-09-18T10:57:36;24.50;99.90
43671;DHT22;29267;50.906;7.248;2023-09-18T11:00:03;24.40;99.90
43671;DHT22;29267;50.906;7.248;2023-09-18T11:02:40;24.30;99.90
43671;DHT22;29267;50.906;7.248;2023-09-18T11:05:06;24.60;99.90
43671;DHT22;29267;50.906;7.248;2023-09-18T11:07:32;24.40;99.90
43671;DHT22;29267;50.906;7.248;2023-09-18T11:09:57;24.50;99.90
43671;DHT22;29267;50.906;7.248;2023-09-18T11:12:42;24.50;99.90
43671;DHT22;29267;50.906;7.248;2023-09-18T11:15:08;24.40;99.90
43671;DHT22;29267;50.906;7.248;2023-09-18T11:17:39;24.20;99.90
43671;DHT22;29267;50.906;7.248;2023-09-18T11:20:15;24.00;99.90
43671;DHT22;29267;50.906;7.248;2023-09-18T11:25:41;24.10;99.90
43671;DHT22;29267;50.906;7.248;2023-09-18T11:28:15;24.00;99.90
43671;DHT22;29267;50.906;7.248;2023-09-18T11:30:54;24.20;99.90
43671;DHT22;29267;50.906;7.248;2023-09-18T11:33:34;24.40;99.90
43671;DHT22;29267;50.906;7.248;2023-09-18T11:36:04;24.30;99.90
43671;DHT22;29267;50.906;7.248;2023-09-18T11:38:31;24.40;99.90
43671;DHT22;29267;50.906;7.248;2023-09-18T11:40:59;24.60;99.90
43671;DHT22;29267;50.906;7.248;2023-09-18T11:43:28;24.60;99.90
43671;DHT22;29267;50.906;7.248;2023-09-18T11:46:00;24.50;99.90
43671;DHT22;29267;50.906;7.248;2023-09-18T11:48:30;24.60;99.90
43671;DHT22;29267;50.906;7.248;2023-09-18T11:51:00;24.50;99.90
43671;DHT22;29267;50.906;7.248;2023-09-18T11:53:29;24.50;99.90
43671;DHT22;29267;50.906;7.248;2023-09-18T11:55:58;24.70;99.90
43671;DHT22;29267;50.906;7.248;2023-09-18T11:58:24;24.60;99.90
43671;DHT22;29267;50.906;7.248;2023-09-18T12:00:50;24.50;99.90
43671;DHT22;29267;50.906;7.248;2023-09-18T12:03:20;24.50;99.90
43671;DHT22;29267;50.906;7.248;2023-09-18T12:06:02;24.50;99.90
43671;DHT22;29267;50.906;7.248;2023-09-18T12:08:31;24.50;99.90
43671;DHT22;29267;50.906;7.248;2023-09-18T12:10:58;24.40;99.90
43671;DHT22;29267;50.906;7.248;2023-09-18T12:13:27;24.40;99.90
43671;DHT22;29267;50.906;7.248;2023-09-18T12:15:57;24.40;99.90
43671;DHT22;29267;50.906;7.248;2023-09-18T12:18:24;24.40;99.90
43671;DHT22;29267;50.906;7.248;2023-09-18T12:20:51;24.50;99.90
43671;DHT22;29267;50.906;7.248;2023-09-18T12:23:17;24.50;99.90
43671;DHT22;29267;50.906;7.248;2023-09-18T12:25:50;24.50;99.90
43671;DHT22;29267;50.906;7.248;2023-09-18T12:28:22;24.60;99.90
43671;DHT22;29267;50.906;7.248;2023-09-18T12:30:47;24.60;99.90
43671;DHT22;29267;50.906;7.248;2023-09-18T12:33:16;24.70;99.90
43671;DHT22;29267;50.906;7.248;2023-09-18T12:35:42;24.70;99.90
43671;DHT22;29267;50.906;7.248;2023-09-18T12:38:16;24.80;99.90
43671;DHT22;29267;50.906;7.248;2023-09-18T12:40:43;24.80;99.90
43671;DHT22;29267;50.906;7.248;2023-09-18T12:43:12;24.90;99.90
43671;DHT22;29267;50.906;7.248;2023-09-18T12:45:38;24.70;99.70
43671;DHT22;29267;50.906;7.248;2023-09-18T12:48:05;24.70;99.80
43671;DHT22;29267;50.906;7.248;2023-09-18T12:50:31;24.60;99.80
43671;DHT22;29267;50.906;7.248;2023-09-18T12:53:26;24.40;99.90
43671;DHT22;29267;50.906;7.248;2023-09-18T12:55:52;24.40;99.90
43671;DHT22;29267;50.906;7.248;2023-09-18T12:58:20;24.50;99.80
43671;DHT22;29267;50.906;7.248;2023-09-18T13:00:48;24.60;99.90
43671;DHT22;29267;50.906;7.248;2023-09-18T13:03:16;24.70;99.60
43671;DHT22;29267;50.906;7.248;2023-09-18T13:05:42;24.80;99.90
43671;DHT22;29267;50.906;7.248;2023-09-18T13:08:08;24.80;99.50
43671;DHT22;29267;50.906;7.248;2023-09-18T13:10:46;24.80;99.30
43671;DHT22;29267;50.906;7.248;2023-09-18T13:13:22;24.90;99.90
43671;DHT22;29267;50.906;7.248;2023-09-18T13:15:48;24.80;99.40
43671;DHT22;29267;50.906;7.248;2023-09-18T13:18:15;24.70;98.70
43671;DHT22;29267;50.906;7.248;2023-09-18T13:20:42;24.50;99.50
43671;DHT22;29267;50.906;7.248;2023-09-18T13:23:08;24.50;99.50
43671;DHT22;29267;50.906;7.248;2023-09-18T13:25:36;24.40;99.20
43671;DHT22;29267;50.906;7.248;2023-09-18T13:28:04;24.40;99.10
43671;DHT22;29267;50.906;7.248;2023-09-18T13:30:31;24.30;98.90
43671;DHT22;29267;50.906;7.248;2023-09-18T13:33:04;24.30;99.70
43671;DHT22;29267;50.906;7.248;2023-09-18T13:35:31;24.50;99.80
43671;DHT22;29267;50.906;7.248;2023-09-18T13:37:57;24.60;98.90
43671;DHT22;29267;50.906;7.248;2023-09-18T13:40:23;24.60;98.10
43671;DHT22;29267;50.906;7.248;2023-09-18T13:42:49;24.70;97.50
43671;DHT22;29267;50.906;7.248;2023-09-18T13:45:14;24.60;97.70
43671;DHT22;29267;50.906;7.248;2023-09-18T13:47:41;24.60;97.90
43671;DHT22;29267;50.906;7.248;2023-09-18T13:50:08;24.70;97.70
43671;DHT22;29267;50.906;7.248;2023-09-18T13:52:35;24.60;96.80
43671;DHT22;29267;50.906;7.248;2023-09-18T13:55:02;24.50;96.90
43671;DHT22;29267;50.906;7.248;2023-09-18T13:57:33;24.40;97.10
43671;DHT22;29267;50.906;7.248;2023-09-18T14:00:00;24.60;97.80
43671;DHT22;29267;50.906;7.248;2023-09-18T14:02:26;24.80;97.70
43671;DHT22;29267;50.906;7.248;2023-09-18T14:04:56;24.80;97.00
43671;DHT22;29267;50.906;7.248;2023-09-18T14:07:21;25.00;96.50
43671;DHT22;29267;50.906;7.248;2023-09-18T14:09:48;25.00;97.00
43671;DHT22;29267;50.906;7.248;2023-09-18T14:12:14;25.00;96.60
43671;DHT22;29267;50.906;7.248;2023-09-18T14:14:43;24.90;96.50
43671;DHT22;29267;50.906;7.248;2023-09-18T14:17:10;24.80;96.30
43671;DHT22;29267;50.906;7.248;2023-09-18T14:19:35;24.80;96.00
43671;DHT22;29267;50.906;7.248;2023-09-18T14:22:04;24.80;95.80
43671;DHT22;29267;50.906;7.248;2023-09-18T14:24:31;24.70;96.20
43671;DHT22;29267;50.906;7.248;2023-09-18T14:26:57;24.70;96.80
43671;DHT22;29267;50.906;7.248;2023-09-18T14:29:22;24.70;96.90
43671;DHT22;29267;50.906;7.248;2023-09-18T14:31:48;24.70;96.70
43671;DHT22;29267;50.906;7.248;2023-09-18T14:34:13;24.60;96.90
43671;DHT22;29267;50.906;7.248;2023-09-18T14:36:39;24.60;96.90
43671;DHT22;29267;50.906;7.248;2023-09-18T14:39:06;24.70;96.50
43671;DHT22;29267;50.906;7.248;2023-09-18T14:41:37;24.70;96.80
43671;DHT22;29267;50.906;7.248;2023-09-18T14:44:06;24.50;95.50
43671;DHT22;29267;50.906;7.248;2023-09-18T14:46:37;24.40;96.50
43671;DHT22;29267;50.906;7.248;2023-09-18T14:49:04;24.30;95.40
43671;DHT22;29267;50.906;7.248;2023-09-18T14:51:30;24.30;95.30
43671;DHT22;29267;50.906;7.248;2023-09-18T14:53:57;24.30;96.10
43671;DHT22;29267;50.906;7.248;2023-09-18T14:56:23;24.20;96.60
43671;DHT22;29267;50.906;7.248;2023-09-18T14:58:49;24.20;96.40
43671;DHT22;29267;50.906;7.248;2023-09-18T15:01:19;24.10;96.40
43671;DHT22;29267;50.906;7.248;2023-09-18T15:03:46;24.00;95.80
43671;DHT22;29267;50.906;7.248;2023-09-18T15:06:12;24.00;95.90
43671;DHT22;29267;50.906;7.248;2023-09-18T15:08:38;23.80;96.30
43671;DHT22;29267;50.906;7.248;2023-09-18T15:11:03;23.80;97.00
43671;DHT22;29267;50.906;7.248;2023-09-18T15:13:30;23.70;96.10
43671;DHT22;29267;50.906;7.248;2023-09-18T15:15:56;23.60;95.90
43671;DHT22;29267;50.906;7.248;2023-09-18T15:18:22;23.60;95.80
43671;DHT22;29267;50.906;7.248;2023-09-18T15:20:47;23.60;96.20
43671;DHT22;29267;50.906;7.248;2023-09-18T15:23:13;23.70;95.70
43671;DHT22;29267;50.906;7.248;2023-09-18T15:25:39;23.90;96.20
43671;DHT22;29267;50.906;7.248;2023-09-18T15:28:07;24.10;96.10
43671;DHT22;29267;50.906;7.248;2023-09-18T15:30:33;24.10;95.10
43671;DHT22;29267;50.906;7.248;2023-09-18T15:32:59;24.00;95.30
43671;DHT22;29267;50.906;7.248;2023-09-18T15:35:25;24.00;95.40
43671;DHT22;29267;50.906;7.248;2023-09-18T15:37:52;23.90;95.30
43671;DHT22;29267;50.906;7.248;2023-09-18T15:40:19;23.90;95.50